Time;durP1;ratioP1;P1;durP2;ratioP2;P2;SDS_P1;SDS_P2;PMS_P1;PMS_P2;Temp;Humidity;BMP_temperature;BMP_pressure;BME280_temperature;BME280_humidity;BME280_pressure;Samples;Min_cycle;Max_cycle;Signal;HPM_P1;HPM_P2
2021/09/29 00:00:01;;;;;;;8.35;1.52;;;17.50;70.30;;;;;;5044522;28;20045;-71
2021/09/29 00:02:27;;;;;;;8.27;1.60;;;17.50;70.30;;;;;;5053561;28;20025;-72
2021/09/29 00:04:54;;;;;;;6.80;2.13;;;17.50;70.30;;;;;;5048241;28;20017;-72
2021/09/29 00:07:20;;;;;;;8.93;1.63;;;17.50;70.90;;;;;;5047583;28;20017;-72
2021/09/29 00:09:47;;;;;;;7.60;2.28;;;17.40;69.80;;;;;;5046706;28;20029;-72
2021/09/29 00:12:13;;;;;;;5.50;1.83;;;17.40;69.70;;;;;;5051802;28;20475;-72
2021/09/29 00:14:40;;;;;;;8.77;2.05;;;17.40;69.00;;;;;;5044469;28;20104;-72
2021/09/29 00:17:06;;;;;;;3.67;1.33;;;17.40;68.80;;;;;;5045760;28;20017;-72
2021/09/29 00:19:33;;;;;;;7.00;2.83;;;17.40;68.70;;;;;;5047065;28;20521;-72
2021/09/29 00:21:59;;;;;;;8.15;2.00;;;17.40;68.80;;;;;;5045097;28;20441;-72
2021/09/29 00:24:26;;;;;;;9.90;2.00;;;17.40;68.40;;;;;;5046490;28;20530;-72
2021/09/29 00:26:53;;;;;;;4.43;1.75;;;17.40;68.10;;;;;;5047278;28;20028;-72
2021/09/29 00:29:19;;;;;;;6.28;2.22;;;17.40;68.00;;;;;;5050384;28;20025;-72
2021/09/29 00:31:46;;;;;;;10.10;1.65;;;17.40;68.20;;;;;;5046869;28;20526;-72
2021/09/29 00:34:14;;;;;;;6.00;1.20;;;17.30;67.90;;;;;;5047503;28;20053;-72
2021/09/29 00:36:43;;;;;;;9.32;2.17;;;17.30;68.00;;;;;;5045703;28;21102;-72
2021/09/29 00:39:11;;;;;;;9.02;2.67;;;17.30;67.90;;;;;;5043393;28;20066;-72
2021/09/29 00:41:39;;;;;;;6.55;1.38;;;17.30;67.90;;;;;;5043719;28;20481;-72
2021/09/29 00:44:05;;;;;;;10.52;2.40;;;17.30;67.90;;;;;;5045644;28;20103;-72
2021/09/29 00:46:33;;;;;;;2.70;1.67;;;17.30;68.00;;;;;;5048355;28;20345;-72
2021/09/29 00:49:00;;;;;;;11.32;1.65;;;17.30;68.00;;;;;;5045251;28;20021;-72
2021/09/29 00:51:26;;;;;;;5.45;1.90;;;17.30;67.90;;;;;;5047842;28;20479;-72
2021/09/29 00:53:53;;;;;;;8.60;2.00;;;17.30;68.10;;;;;;5047663;28;20036;-72
2021/09/29 00:56:23;;;;;;;8.40;2.15;;;17.20;68.10;;;;;;5044397;28;20017;-72
2021/09/29 00:58:50;;;;;;;7.18;1.50;;;17.20;68.40;;;;;;5045222;28;20021;-72
2021/09/29 01:01:17;;;;;;;6.95;1.65;;;17.20;68.60;;;;;;5043087;28;20067;-72
2021/09/29 01:03:46;;;;;;;3.30;1.40;;;17.20;68.80;;;;;;5047262;28;20021;-72
2021/09/29 01:06:36;;;;;;;4.55;1.55;;;17.20;68.80;;;;;;5046887;28;20024;-72
2021/09/29 01:09:11;;;;;;;4.45;1.42;;;17.20;68.80;;;;;;5038440;28;20052;-72
2021/09/29 01:11:49;;;;;;;11.60;2.07;;;17.10;68.80;;;;;;5043328;28;20013;-72
2021/09/29 01:14:26;;;;;;;8.27;1.60;;;17.10;69.00;;;;;;5045821;28;20088;-73
2021/09/29 01:16:57;;;;;;;7.43;1.60;;;17.10;68.90;;;;;;5050072;28;20021;-73
2021/09/29 01:19:45;;;;;;;11.63;2.63;;;17.00;69.00;;;;;;5046277;28;20029;-72
2021/09/29 01:22:25;;;;;;;6.32;1.65;;;17.10;68.90;;;;;;5046879;28;20041;-71
2021/09/29 01:25:01;;;;;;;4.80;1.45;;;17.10;68.80;;;;;;5042898;28;20951;-72
2021/09/29 01:27:29;;;;;;;4.00;1.10;;;17.10;69.40;;;;;;5046144;28;20013;-73
2021/09/29 01:29:56;;;;;;;6.80;1.08;;;17.10;68.60;;;;;;5046040;28;20029;-73
2021/09/29 01:32:23;;;;;;;9.05;2.97;;;17.10;68.50;;;;;;5046400;28;20039;-73
2021/09/29 01:34:51;;;;;;;7.45;1.20;;;17.10;68.40;;;;;;5047065;28;20070;-73
2021/09/29 01:37:18;;;;;;;4.78;1.63;;;17.10;68.30;;;;;;5045145;28;20418;-73
2021/09/29 01:39:46;;;;;;;7.18;1.73;;;17.10;68.40;;;;;;5046015;28;20025;-72
2021/09/29 01:42:13;;;;;;;6.63;1.23;;;17.10;68.40;;;;;;5044126;28;20087;-72
2021/09/29 01:44:40;;;;;;;3.55;1.58;;;17.10;68.40;;;;;;5045476;28;20029;-73
2021/09/29 01:47:09;;;;;;;5.20;1.50;;;17.10;68.40;;;;;;5043998;28;20104;-73
2021/09/29 01:49:41;;;;;;;5.20;1.85;;;17.10;68.40;;;;;;5046494;28;20013;-73
2021/09/29 01:52:09;;;;;;;9.77;2.33;;;17.00;68.50;;;;;;5043221;28;20067;-73
2021/09/29 01:54:45;;;;;;;6.47;2.15;;;17.00;68.50;;;;;;5046593;28;20018;-73
2021/09/29 01:57:12;;;;;;;7.57;2.45;;;17.00;68.50;;;;;;5045094;28;20385;-73
2021/09/29 01:59:41;;;;;;;6.25;1.40;;;17.00;68.60;;;;;;5044632;28;20029;-72
2021/09/29 02:02:08;;;;;;;5.45;2.28;;;17.00;68.50;;;;;;5045094;28;20040;-72
2021/09/29 02:04:35;;;;;;;5.75;1.55;;;17.00;68.60;;;;;;5043434;28;20017;-72
2021/09/29 02:07:01;;;;;;;6.20;1.70;;;17.00;68.70;;;;;;5046413;28;20430;-72
2021/09/29 02:09:28;;;;;;;5.47;1.98;;;17.00;68.90;;;;;;5042447;28;20020;-73
2021/09/29 02:11:56;;;;;;;10.68;2.50;;;17.00;68.90;;;;;;5044431;28;20388;-72
2021/09/29 02:14:24;;;;;;;7.10;1.80;;;17.00;69.20;;;;;;5044748;28;20013;-73
2021/09/29 02:16:53;;;;;;;4.85;1.55;;;17.00;69.20;;;;;;5043714;28;20060;-72
2021/09/29 02:19:20;;;;;;;9.55;2.60;;;17.10;69.30;;;;;;5046325;28;20025;-72
2021/09/29 02:21:46;;;;;;;5.43;2.58;;;17.00;69.20;;;;;;5043608;28;20114;-72
2021/09/29 02:24:13;;;;;;;5.00;1.58;;;17.00;69.30;;;;;;5043580;28;20017;-73
2021/09/29 02:26:40;;;;;;;5.82;1.40;;;17.00;69.00;;;;;;5044778;28;20025;-72
2021/09/29 02:29:11;;;;;;;7.80;1.40;;;16.90;69.10;;;;;;5047806;28;20013;-72
2021/09/29 02:31:38;;;;;;;6.75;1.50;;;16.90;69.10;;;;;;5041685;28;20701;-72
2021/09/29 02:34:06;;;;;;;9.68;1.60;;;16.90;69.20;;;;;;5041773;28;20063;-73
2021/09/29 02:36:32;;;;;;;7.20;1.58;;;16.90;69.40;;;;;;5043671;28;20096;-73
2021/09/29 02:38:59;;;;;;;7.40;2.28;;;16.90;69.30;;;;;;5042889;28;20020;-72
2021/09/29 02:41:26;;;;;;;6.15;1.30;;;16.90;69.50;;;;;;5043402;28;20448;-72
2021/09/29 02:43:52;;;;;;;5.30;1.92;;;16.90;69.40;;;;;;5043873;28;20108;-72
2021/09/29 02:46:19;;;;;;;10.80;1.35;;;16.90;69.30;;;;;;5045522;28;20488;-72
2021/09/29 02:48:46;;;;;;;7.32;1.73;;;16.90;68.80;;;;;;5038972;28;20026;-72
2021/09/29 02:51:12;;;;;;;6.45;1.10;;;16.90;68.80;;;;;;5041188;28;20028;-72
2021/09/29 02:53:39;;;;;;;7.07;1.45;;;16.90;68.70;;;;;;5043472;28;20498;-72
2021/09/29 02:56:05;;;;;;;7.43;1.55;;;16.90;68.50;;;;;;5044904;28;20535;-72
2021/09/29 02:58:32;;;;;;;7.57;1.33;;;16.90;68.70;;;;;;5046310;28;20105;-72
2021/09/29 03:00:59;;;;;;;7.03;2.17;;;16.90;68.60;;;;;;5041651;28;20055;-72
2021/09/29 03:03:26;;;;;;;4.43;1.23;;;16.90;68.60;;;;;;5042585;28;20021;-72
2021/09/29 03:05:53;;;;;;;7.15;1.75;;;16.90;68.70;;;;;;5045653;28;20104;-72
2021/09/29 03:08:20;;;;;;;3.55;1.75;;;16.90;68.70;;;;;;5048870;28;20043;-72
2021/09/29 03:10:46;;;;;;;3.30;1.10;;;17.00;68.40;;;;;;5047132;28;20071;-72
2021/09/29 03:13:13;;;;;;;2.83;1.00;;;16.90;68.40;;;;;;5036484;28;20024;-72
2021/09/29 03:15:48;;;;;;;2.97;1.20;;;17.00;68.20;;;;;;5044916;28;20477;-72
2021/09/29 03:18:15;;;;;;;4.13;1.50;;;16.90;68.10;;;;;;5046834;28;20382;-72
2021/09/29 03:20:42;;;;;;;5.38;1.30;;;16.90;67.90;;;;;;5051112;28;20044;-71
2021/09/29 03:23:08;;;;;;;6.90;2.33;;;16.90;67.90;;;;;;5047432;28;20468;-72
2021/09/29 03:25:35;;;;;;;7.07;1.20;;;16.90;67.90;;;;;;5049489;28;20450;-72
2021/09/29 03:28:02;;;;;;;4.72;1.30;;;16.90;68.10;;;;;;5051542;28;20029;-73
2021/09/29 03:30:29;;;;;;;5.28;1.30;;;16.90;68.30;;;;;;5048056;28;20028;-72
2021/09/29 03:32:55;;;;;;;5.22;2.08;;;16.90;68.60;;;;;;5044878;28;20408;-72
2021/09/29 03:35:24;;;;;;;5.45;1.30;;;16.90;68.50;;;;;;5048686;28;20100;-73
2021/09/29 03:37:51;;;;;;;6.25;1.50;;;16.80;68.60;;;;;;5048799;28;20021;-72
2021/09/29 03:40:18;;;;;;;6.22;1.42;;;16.90;68.50;;;;;;5045757;28;20435;-73
2021/09/29 03:42:45;;;;;;;6.20;1.20;;;16.80;68.50;;;;;;5047291;28;20030;-73
2021/09/29 03:45:12;;;;;;;13.38;1.75;;;16.90;68.60;;;;;;5048577;28;20108;-73
2021/09/29 03:47:44;;;;;;;3.83;1.45;;;16.90;68.50;;;;;;5043289;28;20391;-73
2021/09/29 03:50:11;;;;;;;5.97;1.88;;;16.90;68.70;;;;;;5049158;28;20483;-73
2021/09/29 03:52:39;;;;;;;14.20;8.57;;;16.90;68.70;;;;;;5042970;28;20012;-75
2021/09/29 03:55:06;;;;;;;10.45;2.88;;;16.90;68.70;;;;;;5046084;28;20427;-76
2021/09/29 03:57:34;;;;;;;9.60;1.92;;;16.90;68.40;;;;;;5048623;28;20083;-74
2021/09/29 04:00:02;;;;;;;5.03;1.20;;;16.90;68.30;;;;;;5047959;28;20462;-75
2021/09/29 04:02:29;;;;;;;6.43;1.27;;;16.90;68.50;;;;;;5044988;28;20021;-75
2021/09/29 04:04:55;;;;;;;7.00;2.15;;;16.80;68.60;;;;;;5048731;28;20036;-74
2021/09/29 04:07:22;;;;;;;5.95;1.27;;;16.80;68.50;;;;;;5048741;28;20104;-74
2021/09/29 04:09:48;;;;;;;5.82;1.85;;;16.80;68.70;;;;;;5044317;28;20016;-72
2021/09/29 04:12:15;;;;;;;5.95;1.70;;;16.80;68.60;;;;;;5047330;28;20013;-73
2021/09/29 04:14:41;;;;;;;15.32;1.88;;;16.70;68.20;;;;;;5038569;28;20036;-73
2021/09/29 04:17:08;;;;;;;7.00;1.42;;;16.80;68.20;;;;;;5042562;28;20029;-71
2021/09/29 04:19:35;;;;;;;7.35;1.60;;;16.70;68.00;;;;;;5037308;28;20114;-72
2021/09/29 04:22:02;;;;;;;5.70;1.42;;;16.70;68.30;;;;;;5041320;28;20029;-71
2021/09/29 04:24:30;;;;;;;6.45;2.30;;;16.80;67.60;;;;;;5044678;28;20045;-71
2021/09/29 04:26:56;;;;;;;10.55;2.65;;;16.80;67.40;;;;;;5045532;28;20032;-73
2021/09/29 04:29:23;;;;;;;19.13;14.18;;;16.80;67.50;;;;;;5043832;28;20018;-71
2021/09/29 04:31:49;;;;;;;7.85;2.78;;;16.80;67.60;;;;;;5037478;28;20030;-74
2021/09/29 04:34:16;;;;;;;10.38;1.88;;;16.80;67.50;;;;;;5044607;28;20036;-72
2021/09/29 04:36:42;;;;;;;4.25;1.38;;;16.80;67.40;;;;;;5046354;28;20424;-71
2021/09/29 04:39:09;;;;;;;7.13;1.67;;;16.80;67.20;;;;;;5046456;28;20464;-71
2021/09/29 04:41:36;;;;;;;10.15;1.92;;;16.80;67.00;;;;;;5040511;28;20743;-71
2021/09/29 04:44:02;;;;;;;6.45;1.80;;;16.80;67.10;;;;;;5043672;28;20021;-72
2021/09/29 04:46:29;;;;;;;7.25;2.60;;;16.80;67.40;;;;;;5042930;28;20009;-69
2021/09/29 04:48:55;;;;;;;8.45;1.45;;;16.80;67.00;;;;;;5043061;28;20037;-72
2021/09/29 04:51:21;;;;;;;3.97;1.85;;;16.80;67.00;;;;;;5041494;28;20021;-72
2021/09/29 04:53:48;;;;;;;9.55;2.22;;;16.80;67.10;;;;;;5040879;28;20375;-73
2021/09/29 04:56:15;;;;;;;3.53;1.27;;;16.90;67.00;;;;;;5043373;28;20060;-72
2021/09/29 04:58:43;;;;;;;10.75;1.60;;;16.90;66.90;;;;;;5039925;28;20029;-72
2021/09/29 05:01:49;;;;;;;9.20;2.75;;;16.90;66.70;;;;;;5042490;28;20419;-74
2021/09/29 05:04:55;;;;;;;8.77;1.58;;;16.90;66.50;;;;;;5040205;28;20032;-71
2021/09/29 05:07:22;;;;;;;5.75;1.48;;;16.80;66.80;;;;;;5038815;28;20066;-72
2021/09/29 05:09:50;;;;;;;2.47;1.23;;;16.80;66.80;;;;;;5037198;28;20025;-72
2021/09/29 05:12:31;;;;;;;8.55;2.80;;;16.80;66.70;;;;;;5039216;28;20024;-72
2021/09/29 05:14:58;;;;;;;3.03;1.65;;;16.80;66.70;;;;;;5035422;28;20080;-72
2021/09/29 05:17:26;;;;;;;6.00;1.63;;;16.80;67.10;;;;;;5040228;28;20061;-72
2021/09/29 05:19:53;;;;;;;9.25;2.00;;;16.80;67.50;;;;;;5037009;28;20633;-72
2021/09/29 05:22:20;;;;;;;5.30;1.20;;;16.80;67.50;;;;;;5037720;28;20545;-72
2021/09/29 05:24:46;;;;;;;13.88;3.28;;;16.80;67.30;;;;;;5039168;28;20021;-72
2021/09/29 05:27:13;;;;;;;6.65;1.42;;;16.80;67.40;;;;;;5038778;28;20014;-72
2021/09/29 05:29:42;;;;;;;6.43;2.00;;;16.90;67.40;;;;;;5038242;28;20049;-71
2021/09/29 05:32:09;;;;;;;17.08;4.18;;;16.90;67.40;;;;;;5036164;28;20013;-72
2021/09/29 05:34:35;;;;;;;4.97;2.33;;;16.80;67.40;;;;;;5040002;28;20575;-72
2021/09/29 05:37:03;;;;;;;7.22;1.50;;;16.90;66.60;;;;;;5043452;28;20083;-72
2021/09/29 05:39:29;;;;;;;3.92;1.15;;;16.90;66.00;;;;;;5047787;28;20009;-72
2021/09/29 05:42:16;;;;;;;4.68;1.17;;;17.00;66.10;;;;;;5044474;28;20022;-72
2021/09/29 05:44:43;;;;;;;4.93;2.00;;;17.00;66.20;;;;;;5047348;28;20552;-72
2021/09/29 05:47:09;;;;;;;5.43;1.65;;;17.00;66.50;;;;;;5043754;28;20035;-72
2021/09/29 05:49:36;;;;;;;8.35;2.15;;;17.00;66.50;;;;;;5042812;28;20024;-72
2021/09/29 05:52:03;;;;;;;12.63;1.73;;;17.10;66.60;;;;;;5039261;28;20017;-71
2021/09/29 05:54:30;;;;;;;9.75;1.85;;;17.10;66.50;;;;;;5041364;28;20027;-72
2021/09/29 05:56:57;;;;;;;7.80;1.60;;;17.10;66.50;;;;;;5042847;28;20491;-71
2021/09/29 05:59:23;;;;;;;9.63;1.98;;;17.20;66.00;;;;;;5039885;28;20045;-71
2021/09/29 06:01:51;;;;;;;8.57;1.55;;;17.10;65.70;;;;;;5038075;28;20484;-71
2021/09/29 06:04:18;;;;;;;11.90;2.30;;;17.10;65.60;;;;;;5044200;28;20021;-71
2021/09/29 06:06:45;;;;;;;8.38;1.80;;;17.20;65.90;;;;;;5050193;28;20400;-72
2021/09/29 06:09:11;;;;;;;9.20;2.80;;;17.20;65.60;;;;;;5039364;28;20434;-71
2021/09/29 06:11:38;;;;;;;9.00;2.28;;;17.30;65.60;;;;;;5042035;28;20381;-71
2021/09/29 06:14:06;;;;;;;9.25;1.73;;;17.30;65.30;;;;;;5041622;28;20389;-71
2021/09/29 06:16:43;;;;;;;5.18;1.50;;;17.30;65.20;;;;;;5043485;28;20017;-71
2021/09/29 06:19:10;;;;;;;8.63;1.90;;;17.40;65.10;;;;;;5042556;28;20013;-71
2021/09/29 06:21:37;;;;;;;3.67;1.27;;;17.40;64.90;;;;;;5044658;28;20040;-73
2021/09/29 06:24:04;;;;;;;8.70;1.92;;;17.50;64.90;;;;;;5043415;28;20021;-72
2021/09/29 06:26:31;;;;;;;4.90;1.80;;;17.50;64.70;;;;;;5046875;28;20028;-71
2021/09/29 06:28:58;;;;;;;4.25;1.38;;;17.50;64.70;;;;;;5043178;28;20031;-71
2021/09/29 06:31:26;;;;;;;10.15;2.75;;;17.50;64.90;;;;;;5044154;28;20025;-71
2021/09/29 06:33:53;;;;;;;4.80;2.08;;;17.60;64.90;;;;;;5046809;28;20031;-70
2021/09/29 06:36:20;;;;;;;7.10;2.13;;;17.60;64.90;;;;;;5043336;28;20575;-71
2021/09/29 06:38:46;;;;;;;3.53;1.70;;;17.60;64.60;;;;;;5042795;28;20025;-71
2021/09/29 06:41:12;;;;;;;4.45;1.40;;;17.70;64.30;;;;;;5042855;28;20111;-71
2021/09/29 06:43:39;;;;;;;10.57;1.48;;;17.70;63.80;;;;;;5046481;28;20025;-72
2021/09/29 06:46:05;;;;;;;9.55;1.58;;;17.80;63.60;;;;;;5045366;28;20025;-71
2021/09/29 06:48:32;;;;;;;9.05;2.03;;;17.80;63.40;;;;;;5046572;28;20094;-71
2021/09/29 06:50:59;;;;;;;9.50;1.98;;;17.90;63.20;;;;;;5044317;28;20021;-71
2021/09/29 06:53:25;;;;;;;3.90;1.27;;;17.90;63.30;;;;;;5047158;28;20021;-71
2021/09/29 06:55:52;;;;;;;6.32;1.50;;;18.00;63.00;;;;;;5043976;28;20017;-71
2021/09/29 06:58:20;;;;;;;7.22;1.40;;;18.00;63.00;;;;;;5043006;28;20017;-71
2021/09/29 07:00:48;;;;;;;7.18;2.00;;;18.10;62.90;;;;;;5042842;28;20053;-71
2021/09/29 07:03:14;;;;;;;7.10;1.42;;;18.10;62.50;;;;;;5042082;28;20461;-70
2021/09/29 07:05:41;;;;;;;4.68;1.60;;;18.20;62.20;;;;;;5045145;28;20025;-71
2021/09/29 07:08:07;;;;;;;5.50;1.40;;;18.20;62.40;;;;;;5042149;28;20013;-72
2021/09/29 07:10:34;;;;;;;5.38;1.55;;;18.30;62.10;;;;;;5048329;28;20017;-72
2021/09/29 07:13:00;;;;;;;8.30;1.83;;;18.30;61.50;;;;;;5041645;28;20528;-72
2021/09/29 07:15:27;;;;;;;9.73;1.65;;;18.50;59.80;;;;;;5044908;28;20780;-71
2021/09/29 07:18:00;;;;;;;11.60;1.60;;;18.50;59.90;;;;;;5047800;28;20075;-71
2021/09/29 07:20:28;;;;;;;8.70;1.85;;;18.60;59.50;;;;;;5042141;28;20116;-71
2021/09/29 07:22:57;;;;;;;10.45;2.72;;;18.60;58.80;;;;;;5044878;28;20017;-71
2021/09/29 07:25:27;;;;;;;4.68;1.00;;;18.60;59.20;;;;;;5043355;28;20430;-71
2021/09/29 07:27:54;;;;;;;6.88;1.30;;;18.70;58.90;;;;;;5043466;28;20020;-71
2021/09/29 07:30:21;;;;;;;5.95;1.30;;;18.70;59.00;;;;;;5044253;28;20047;-71
2021/09/29 07:32:51;;;;;;;7.60;1.27;;;18.80;59.00;;;;;;5049515;28;20087;-71
2021/09/29 07:35:18;;;;;;;5.03;1.30;;;18.90;58.50;;;;;;5050189;28;20024;-72
2021/09/29 07:37:46;;;;;;;6.45;1.38;;;18.90;58.20;;;;;;5047268;28;20021;-71
2021/09/29 07:40:13;;;;;;;3.58;1.13;;;19.00;58.00;;;;;;5050158;28;20048;-71
2021/09/29 07:42:40;;;;;;;6.90;1.95;;;19.10;58.30;;;;;;5048177;28;20021;-71
2021/09/29 07:45:09;;;;;;;3.55;1.02;;;19.10;57.80;;;;;;5048213;28;20044;-72
2021/09/29 07:47:36;;;;;;;2.55;1.25;;;19.10;57.70;;;;;;5050559;28;20017;-71
2021/09/29 07:50:05;;;;;;;7.07;1.75;;;19.20;58.10;;;;;;5044062;28;20542;-71
2021/09/29 07:52:32;;;;;;;6.00;1.27;;;19.20;58.10;;;;;;5048374;28;20017;-71
2021/09/29 07:54:59;;;;;;;8.63;1.90;;;19.30;57.30;;;;;;5044475;28;20022;-72
2021/09/29 07:57:25;;;;;;;10.93;1.65;;;19.40;56.40;;;;;;5048665;28;20507;-72
2021/09/29 07:59:52;;;;;;;7.43;1.50;;;19.50;56.10;;;;;;5044400;28;20044;-71
2021/09/29 08:02:18;;;;;;;9.40;1.48;;;19.60;55.40;;;;;;5048274;28;20030;-72
2021/09/29 08:04:45;;;;;;;5.63;1.75;;;19.60;55.60;;;;;;5051249;28;20017;-72
2021/09/29 08:07:13;;;;;;;9.40;2.47;;;19.70;55.60;;;;;;5045406;28;20040;-72
2021/09/29 08:09:40;;;;;;;12.93;3.85;;;19.80;55.60;;;;;;5047133;28;20470;-71
2021/09/29 08:12:07;;;;;;;7.05;1.08;;;19.80;55.80;;;;;;5042979;28;20593;-72
2021/09/29 08:14:39;;;;;;;4.50;1.08;;;19.90;54.70;;;;;;5046454;28;20100;-72
2021/09/29 08:17:09;;;;;;;9.27;1.90;;;20.00;54.40;;;;;;5046539;28;20024;-71
2021/09/29 08:19:36;;;;;;;6.85;1.88;;;20.00;54.30;;;;;;5046068;28;20014;-71
2021/09/29 08:22:08;;;;;;;9.35;1.48;;;20.10;53.20;;;;;;5045705;28;20072;-72
2021/09/29 08:24:46;;;;;;;6.97;1.60;;;20.10;53.00;;;;;;5045909;28;20017;-71
2021/09/29 08:29:51;;;;;;;4.15;1.30;;;20.30;52.40;;;;;;5045182;28;20021;-72
2021/09/29 08:32:25;;;;;;;4.75;1.17;;;20.30;52.00;;;;;;5046906;28;20112;-71
2021/09/29 08:37:35;;;;;;;8.48;2.22;;;20.50;53.20;;;;;;5044438;28;20442;-71
2021/09/29 08:48:33;;;;;;;8.73;1.50;;;20.70;52.30;;;;;;5047830;28;20024;-72
2021/09/29 09:17:38;;;;;;;7.82;1.38;;;21.60;44.90;;;;;;5047810;28;20439;-71
2021/09/29 09:20:16;;;;;;;3.72;1.05;;;21.70;44.40;;;;;;5047582;28;20357;-71
2021/09/29 09:22:48;;;;;;;5.65;1.60;;;21.90;43.40;;;;;;5043284;28;20546;-71
2021/09/29 09:25:14;;;;;;;4.55;1.33;;;21.90;43.60;;;;;;5043073;28;20013;-72
2021/09/29 09:27:46;;;;;;;2.25;0.70;;;22.00;42.60;;;;;;5045187;28;20070;-71
2021/09/29 09:30:35;;;;;;;6.57;1.05;;;22.10;42.20;;;;;;5046968;28;20021;-71
2021/09/29 09:33:02;;;;;;;4.57;1.30;;;22.30;41.50;;;;;;5045586;28;20016;-71
2021/09/29 09:35:42;;;;;;;2.63;0.70;;;22.40;40.90;;;;;;5046293;28;20017;-72
2021/09/29 09:38:16;;;;;;;2.05;0.80;;;22.50;40.70;;;;;;5042550;28;20057;-71
2021/09/29 09:40:43;;;;;;;2.92;0.70;;;22.70;40.70;;;;;;5043623;28;20072;-71
2021/09/29 09:43:09;;;;;;;4.95;1.17;;;22.80;40.90;;;;;;5047079;28;20476;-71
2021/09/29 09:45:43;;;;;;;6.88;1.60;;;22.90;41.00;;;;;;5044402;28;20420;-72
2021/09/29 09:48:26;;;;;;;8.20;1.50;;;23.00;44.20;;;;;;5045610;28;20021;-71
2021/09/29 09:51:15;;;;;;;11.52;2.88;;;23.10;46.20;;;;;;5046705;28;20013;-71
2021/09/29 09:53:53;;;;;;;9.32;2.30;;;23.20;47.00;;;;;;5043848;28;20429;-72
2021/09/29 09:56:22;;;;;;;6.57;1.55;;;23.20;47.60;;;;;;5045705;28;20532;-71
2021/09/29 09:58:50;;;;;;;11.00;1.88;;;23.10;47.90;;;;;;5041580;28;20464;-71
2021/09/29 10:01:18;;;;;;;10.13;2.47;;;23.10;47.70;;;;;;5043808;28;20047;-71
2021/09/29 10:03:45;;;;;;;15.05;2.47;;;23.10;47.70;;;;;;5043513;28;20083;-71
2021/09/29 10:06:12;;;;;;;10.90;1.90;;;23.10;47.70;;;;;;5045589;28;20021;-70
2021/09/29 10:08:41;;;;;;;9.48;1.98;;;23.10;47.30;;;;;;5042880;28;20036;-71
2021/09/29 10:11:18;;;;;;;12.40;2.40;;;23.20;46.60;;;;;;5049298;28;20021;-72
2021/09/29 10:27:44;;;;;;;3.28;1.10;;;23.70;44.10;;;;;;5044267;28;20037;-72
2021/09/29 10:30:13;;;;;;;9.02;1.55;;;23.70;45.20;;;;;;5047212;28;20082;-71
2021/09/29 10:32:42;;;;;;;8.40;1.38;;;23.80;45.30;;;;;;5043933;28;20104;-71
2021/09/29 10:35:30;;;;;;;8.00;1.25;;;23.80;44.40;;;;;;5043500;28;20420;-71
2021/09/29 10:43:24;;;;;;;4.60;1.23;;;23.80;44.30;;;;;;5043256;28;20377;-72
2021/09/29 10:46:03;;;;;;;2.42;1.02;;;23.80;45.30;;;;;;5044537;28;20021;-72
2021/09/29 11:09:49;;;;;;;2.58;0.90;;;24.30;43.40;;;;;;5046718;28;20052;-71
2021/09/29 11:30:05;;;;;;;6.68;1.70;;;24.90;47.80;;;;;;5046641;28;20035;-72
2021/09/29 11:32:36;;;;;;;9.05;1.38;;;24.90;46.70;;;;;;5043791;28;20021;-71
2021/09/29 12:08:49;;;;;;;9.50;2.13;;;24.80;48.30;;;;;;5042134;28;20047;-72
2021/09/29 12:11:23;;;;;;;8.57;2.35;;;24.80;48.90;;;;;;5043155;28;20452;-73
2021/09/29 12:16:31;;;;;;;9.75;2.25;;;24.80;49.30;;;;;;5045990;28;20020;-72
2021/09/29 12:19:00;;;;;;;10.10;1.65;;;24.90;49.30;;;;;;5042667;28;20468;-72
2021/09/29 12:21:47;;;;;;;18.52;2.22;;;24.90;48.70;;;;;;5050959;28;20031;-72
2021/09/29 12:24:35;;;;;;;6.38;2.63;;;25.00;49.70;;;;;;5045432;28;20025;-72
2021/09/29 12:27:03;;;;;;;6.57;1.73;;;25.00;49.70;;;;;;5048177;28;20137;-72
2021/09/29 12:29:35;;;;;;;8.90;2.60;;;25.00;49.80;;;;;;5045194;28;20028;-72
2021/09/29 12:35:08;;;;;;;9.75;3.15;;;25.10;50.40;;;;;;5044886;28;20028;-71
2021/09/29 12:37:35;;;;;;;6.57;2.58;;;25.00;50.30;;;;;;5050714;28;20353;-72
2021/09/29 12:40:02;;;;;;;16.55;2.05;;;25.10;50.70;;;;;;5045254;28;20028;-71
2021/09/29 12:42:35;;;;;;;12.25;2.97;;;25.10;49.90;;;;;;5050754;28;20036;-71
2021/09/29 12:45:03;;;;;;;9.45;1.83;;;25.20;49.30;;;;;;5043137;28;20029;-71
2021/09/29 12:50:00;;;;;;;10.05;3.53;;;25.10;49.10;;;;;;5044839;28;20025;-71
2021/09/29 12:52:36;;;;;;;6.88;2.10;;;25.20;49.10;;;;;;5046925;28;20475;-72
2021/09/29 12:55:04;;;;;;;9.00;2.60;;;25.10;49.00;;;;;;5046329;28;20103;-72
2021/09/29 12:57:31;;;;;;;3.00;1.02;;;25.10;49.20;;;;;;5045210;28;20021;-72
2021/09/29 13:00:00;;;;;;;0.70;0.40;;;25.20;42.10;;;;;;5044632;28;20041;-71
2021/09/29 13:02:27;;;;;;;3.90;0.63;;;25.30;40.40;;;;;;5046564;28;20020;-71
2021/09/29 13:04:54;;;;;;;2.38;0.50;;;25.30;39.90;;;;;;5044948;28;20760;-71
2021/09/29 13:07:20;;;;;;;3.33;0.80;;;25.40;40.00;;;;;;5049977;28;20025;-71
2021/09/29 13:09:46;;;;;;;1.48;0.70;;;25.50;40.10;;;;;;5046190;28;20025;-71
2021/09/29 13:12:14;;;;;;;2.55;0.50;;;25.60;39.40;;;;;;5045279;28;20055;-71
2021/09/29 13:14:41;;;;;;;2.95;0.50;;;25.60;39.00;;;;;;5043224;28;20024;-71
2021/09/29 13:17:07;;;;;;;2.25;0.43;;;25.60;40.40;;;;;;5048965;28;20017;-71
2021/09/29 13:20:00;;;;;;;3.20;0.40;;;25.50;40.50;;;;;;5044826;28;20096;-71
2021/09/29 13:22:22;;;;;;;2.67;0.60;;;25.50;40.80;;;;;;5044697;28;20047;-71
2021/09/29 13:38:23;;;;;;;2.35;0.60;;;25.10;42.10;;;;;;5048282;28;20104;-71
2021/09/29 13:40:50;;;;;;;2.75;0.70;;;25.10;42.50;;;;;;5046447;28;20535;-71
2021/09/29 13:43:16;;;;;;;3.08;0.60;;;25.10;42.40;;;;;;5048899;28;20465;-71
2021/09/29 13:45:43;;;;;;;3.00;0.68;;;25.00;42.50;;;;;;5047802;28;20021;-71
2021/09/29 13:48:09;;;;;;;8.60;1.10;;;25.00;43.70;;;;;;5045524;28;20020;-71
2021/09/29 13:50:36;;;;;;;4.28;1.55;;;25.00;44.60;;;;;;5042736;28;20014;-71
2021/09/29 13:53:03;;;;;;;2.30;0.68;;;25.00;44.50;;;;;;5047545;28;20025;-72
2021/09/29 13:55:32;;;;;;;2.15;0.70;;;25.00;44.70;;;;;;5047169;28;20017;-72
2021/09/29 13:58:08;;;;;;;2.42;0.85;;;24.90;44.90;;;;;;5042912;28;20029;-71
2021/09/29 14:00:52;;;;;;;2.05;1.08;;;24.80;45.70;;;;;;5046886;28;20824;-72
2021/09/29 14:03:34;;;;;;;3.13;0.70;;;24.80;45.90;;;;;;5046505;28;20384;-72
2021/09/29 14:14:53;;;;;;;8.98;1.50;;;24.60;47.70;;;;;;5040926;28;20055;-71
2021/09/29 14:31:09;;;;;;;5.25;0.82;;;24.20;49.50;;;;;;5042700;28;20455;-73
2021/09/29 14:33:39;;;;;;;1.40;0.73;;;24.20;49.50;;;;;;5047424;28;20028;-68
2021/09/29 14:36:05;;;;;;;3.10;1.10;;;24.20;47.90;;;;;;5043296;28;20155;-74
2021/09/29 14:38:32;;;;;;;4.25;0.73;;;24.20;48.90;;;;;;5040795;28;20013;-73
2021/09/29 14:40:58;;;;;;;6.60;1.98;;;24.10;48.60;;;;;;5041919;28;20082;-73
2021/09/29 14:43:25;;;;;;;8.55;1.40;;;24.10;48.40;;;;;;5045449;28;20025;-71
2021/09/29 14:45:51;;;;;;;5.63;1.35;;;24.10;48.60;;;;;;5046377;28;20014;-74
2021/09/29 14:48:18;;;;;;;9.30;1.88;;;24.00;48.20;;;;;;5045022;28;20025;-71
2021/09/29 14:50:49;;;;;;;6.53;1.30;;;24.00;49.00;;;;;;5043184;28;20031;-71
2021/09/29 14:53:15;;;;;;;6.38;1.15;;;24.00;49.30;;;;;;5040790;28;20102;-72
2021/09/29 14:55:42;;;;;;;4.95;0.47;;;23.90;49.10;;;;;;5043993;28;20025;-78
2021/09/29 14:58:09;;;;;;;3.03;0.80;;;23.80;48.40;;;;;;5040301;28;20100;-72
2021/09/29 15:00:35;;;;;;;3.50;1.48;;;23.80;48.80;;;;;;5041101;28;20049;-70
2021/09/29 15:03:02;;;;;;;3.58;1.20;;;23.70;49.60;;;;;;5040777;28;20040;-72
2021/09/29 15:05:30;;;;;;;4.05;1.33;;;23.70;50.10;;;;;;5030999;28;20104;-70
2021/09/29 15:07:57;;;;;;;5.68;1.50;;;23.70;51.30;;;;;;5040092;28;20017;-71
2021/09/29 15:10:23;;;;;;;4.68;1.05;;;23.60;51.70;;;;;;5038773;28;20468;-72
2021/09/29 15:12:50;;;;;;;0.85;0.60;;;23.60;50.40;;;;;;5040840;28;20013;-73
2021/09/29 15:15:30;;;;;;;4.43;0.90;;;23.60;49.50;;;;;;5044779;28;20032;-72
2021/09/29 15:18:00;;;;;;;4.70;1.20;;;23.50;49.10;;;;;;5043728;28;20021;-72
2021/09/29 15:21:07;;;;;;;2.03;0.77;;;23.40;49.20;;;;;;5038905;28;20047;-71
2021/09/29 15:48:22;;;;;;;5.32;1.00;;;22.80;50.30;;;;;;5041514;28;20532;-72
2021/09/29 15:58:30;;;;;;;6.70;1.15;;;22.70;50.80;;;;;;5044771;28;20029;-71
2021/09/29 16:03:34;;;;;;;23.77;2.13;;;22.70;51.00;;;;;;5041441;28;20029;-71
2021/09/29 16:14:23;;;;;;;5.05;1.08;;;22.40;51.30;;;;;;5040332;28;20265;-70
2021/09/29 16:17:31;;;;;;;2.85;1.55;;;22.20;51.30;;;;;;5038563;28;20140;-72
2021/09/29 16:30:32;;;;;;;7.32;1.25;;;21.90;52.10;;;;;;5042371;28;20047;-74
2021/09/29 16:35:50;;;;;;;21.15;18.75;;;21.80;52.70;;;;;;5046508;28;20102;-73
2021/09/29 16:38:16;;;;;;;7.25;3.63;;;21.80;52.60;;;;;;5043759;28;20036;-73
2021/09/29 16:40:43;;;;;;;4.97;1.60;;;21.70;52.70;;;;;;5045161;28;20168;-74
2021/09/29 16:43:17;;;;;;;3.38;1.05;;;21.60;52.90;;;;;;5045136;28;20021;-73
2021/09/29 16:46:04;;;;;;;5.93;1.08;;;21.60;53.00;;;;;;5043573;28;20021;-73
2021/09/29 16:48:33;;;;;;;4.43;1.45;;;21.50;53.00;;;;;;5048339;28;20024;-73